createdAt,value
2018-07-24T00:01:46.305Z,7.50
2018-07-24T00:04:14.595Z,6.87
2018-07-24T00:06:42.853Z,7.20
2018-07-24T00:09:11.017Z,6.60
2018-07-24T00:11:39.179Z,6.50
2018-07-24T00:14:07.621Z,9.83
2018-07-24T00:16:35.833Z,8.30
2018-07-24T00:19:04.029Z,8.13
2018-07-24T00:21:32.228Z,7.60
2018-07-24T00:24:00.518Z,7.27
2018-07-24T00:26:28.905Z,7.87
2018-07-24T00:28:57.125Z,6.37
2018-07-24T00:31:25.366Z,7.87
2018-07-24T00:33:53.661Z,8.30
2018-07-24T00:36:21.853Z,7.67
2018-07-24T00:38:50.258Z,8.10
2018-07-24T00:41:18.515Z,7.90
2018-07-24T00:43:46.759Z,8.33
2018-07-24T00:46:14.963Z,7.43
2018-07-24T00:48:43.197Z,9.40
2018-07-24T00:51:11.452Z,7.33
2018-07-24T00:53:39.676Z,7.63
2018-07-24T00:56:08.032Z,7.27
2018-07-24T00:58:36.188Z,9.17
2018-07-24T01:01:04.588Z,8.37
2018-07-24T01:03:33.068Z,8.70
2018-07-24T01:06:01.476Z,7.97
2018-07-24T01:08:29.696Z,7.80
2018-07-24T01:10:57.961Z,8.93
2018-07-24T01:13:26.156Z,9.87
2018-07-24T01:15:54.600Z,8.63
2018-07-24T01:18:22.834Z,8.10
2018-07-24T01:20:51.096Z,7.80
2018-07-24T01:23:19.331Z,9.67
2018-07-24T01:25:47.686Z,8.53
2018-07-24T01:28:15.858Z,8.27
2018-07-24T01:30:44.011Z,8.33
2018-07-24T01:33:12.186Z,13.33
2018-07-24T01:35:41.602Z,11.53
2018-07-24T01:38:09.820Z,8.73
2018-07-24T01:40:37.998Z,11.50
2018-07-24T01:43:06.204Z,8.60
2018-07-24T01:45:34.493Z,9.10
2018-07-24T01:48:02.775Z,10.93
2018-07-24T01:50:31.636Z,9.67
2018-07-24T01:52:59.909Z,8.83
2018-07-24T01:55:28.201Z,8.47
2018-07-24T01:57:56.419Z,8.30
2018-07-24T02:00:24.740Z,9.23
2018-07-24T02:02:52.930Z,10.00
2018-07-24T02:05:21.315Z,9.90
2018-07-24T02:07:49.484Z,10.70
2018-07-24T02:10:17.702Z,10.83
2018-07-24T02:12:45.885Z,10.03
2018-07-24T02:15:14.266Z,10.63
2018-07-24T02:17:42.486Z,9.53
2018-07-24T02:20:10.741Z,9.70
2018-07-24T02:22:38.976Z,10.23
2018-07-24T02:25:07.515Z,8.93
2018-07-24T02:27:35.698Z,8.97
2018-07-24T02:30:04.594Z,9.10
2018-07-24T02:32:32.607Z,8.10
2018-07-24T02:35:01.999Z,7.53
2018-07-24T02:37:30.231Z,8.80
2018-07-24T02:39:58.197Z,7.17
2018-07-24T02:42:26.407Z,8.00
2018-07-24T02:44:54.741Z,7.50
2018-07-24T02:47:23.002Z,8.97
2018-07-24T02:49:51.272Z,8.17
2018-07-24T02:52:19.462Z,11.43
2018-07-24T02:54:47.836Z,8.73
2018-07-24T02:57:16.093Z,8.47
2018-07-24T02:59:44.318Z,8.07
2018-07-24T03:02:12.522Z,8.03
2018-07-24T03:04:41.020Z,9.00
2018-07-24T03:07:09.328Z,9.20
2018-07-24T03:09:37.559Z,9.40
2018-07-24T03:12:05.810Z,8.63
2018-07-24T03:14:34.277Z,10.07
2018-07-24T03:17:02.498Z,8.37
2018-07-24T03:19:30.756Z,8.50
2018-07-24T03:21:59.052Z,9.93
2018-07-24T03:24:27.317Z,7.90
2018-07-24T03:26:55.620Z,8.83
2018-07-24T03:29:23.853Z,9.60
2018-07-24T03:31:52.074Z,8.13
2018-07-24T03:34:21.530Z,8.80
2018-07-24T03:36:49.972Z,10.50
2018-07-24T03:39:18.328Z,9.77
2018-07-24T03:41:46.713Z,9.70
2018-07-24T03:44:16.015Z,8.57
2018-07-24T03:46:44.314Z,9.13
2018-07-24T03:49:12.563Z,9.77
2018-07-24T03:51:40.736Z,9.03
2018-07-24T03:54:09.162Z,9.27
2018-07-24T03:56:37.391Z,10.40
2018-07-24T03:59:05.605Z,9.47
2018-07-24T04:01:33.821Z,9.27
2018-07-24T04:04:02.227Z,9.13
2018-07-24T04:06:30.453Z,10.17
2018-07-24T04:08:58.679Z,9.17
2018-07-24T04:11:26.825Z,8.57
2018-07-24T04:13:55.076Z,9.77
2018-07-24T04:16:23.247Z,13.17
2018-07-24T04:18:51.433Z,9.10
2018-07-24T04:21:20.090Z,9.23
2018-07-24T04:23:49.147Z,10.43
2018-07-24T04:26:17.645Z,9.90
2018-07-24T04:28:46.454Z,9.47
2018-07-24T04:31:15.179Z,10.47
2018-07-24T04:33:44.097Z,9.60
2018-07-24T04:36:12.367Z,9.77
2018-07-24T04:38:40.363Z,9.73
2018-07-24T04:41:08.556Z,10.37
2018-07-24T04:43:36.860Z,10.00
2018-07-24T04:46:05.109Z,9.60
2018-07-24T04:48:33.605Z,10.30
2018-07-24T04:51:01.935Z,9.67
2018-07-24T04:53:30.167Z,10.13
2018-07-24T04:55:58.574Z,10.23
2018-07-24T04:58:26.519Z,10.80
2018-07-24T05:00:55.018Z,10.53
2018-07-24T05:03:23.323Z,9.60
2018-07-24T05:05:51.513Z,10.57
2018-07-24T05:08:19.806Z,10.47
2018-07-24T05:10:47.973Z,9.53
2018-07-24T05:13:16.298Z,11.07
2018-07-24T05:15:44.620Z,12.40
2018-07-24T05:18:12.875Z,9.80
2018-07-24T05:20:41.052Z,9.83
2018-07-24T05:23:15.584Z,12.07
2018-07-24T05:25:44.952Z,10.43
2018-07-24T05:28:13.164Z,9.27
2018-07-24T05:30:41.353Z,9.30
2018-07-24T05:33:09.661Z,9.27
2018-07-24T05:35:37.856Z,9.67
2018-07-24T05:38:06.092Z,11.17
2018-07-24T05:40:34.348Z,9.57
2018-07-24T05:43:02.551Z,10.50
2018-07-24T05:45:30.883Z,11.93
2018-07-24T05:47:59.079Z,9.60
2018-07-24T05:50:27.284Z,10.67
2018-07-24T05:52:55.573Z,9.67
2018-07-24T05:55:24.799Z,13.97
2018-07-24T05:57:53.208Z,11.60
2018-07-24T06:00:22.361Z,12.93
2018-07-24T06:02:50.566Z,11.87
2018-07-24T06:05:19.937Z,9.80
2018-07-24T06:07:48.165Z,10.87
2018-07-24T06:10:17.047Z,10.70
2018-07-24T06:12:45.244Z,11.00
2018-07-24T06:15:14.514Z,10.53
2018-07-24T06:17:42.703Z,10.83
2018-07-24T06:20:11.358Z,10.37
2018-07-24T06:22:39.632Z,10.80
2018-07-24T06:25:08.199Z,13.00
2018-07-24T06:27:36.413Z,10.47
2018-07-24T06:30:05.708Z,11.30
2018-07-24T06:32:33.943Z,10.63
2018-07-24T06:35:02.400Z,10.63
2018-07-24T06:37:30.619Z,11.50
2018-07-24T06:39:58.819Z,11.17
2018-07-24T06:42:26.788Z,10.30
2018-07-24T06:44:55.015Z,11.43
2018-07-24T06:47:23.275Z,10.57
2018-07-24T06:49:51.512Z,11.33
2018-07-24T06:52:19.763Z,10.13
2018-07-24T06:54:48.160Z,9.63
2018-07-24T06:57:16.400Z,10.50
2018-07-24T06:59:44.540Z,8.80
2018-07-24T07:02:13.113Z,11.37
2018-07-24T07:04:41.239Z,9.30
2018-07-24T07:07:09.439Z,8.10
2018-07-24T07:09:37.708Z,8.97
2018-07-24T07:12:05.627Z,8.63
2018-07-24T07:14:33.941Z,9.37
2018-07-24T07:17:02.165Z,10.90
2018-07-24T07:19:30.353Z,8.43
2018-07-24T07:21:58.610Z,8.50
2018-07-24T07:24:28.029Z,8.53
2018-07-24T07:26:56.290Z,8.00
2018-07-24T07:29:24.634Z,9.77
2018-07-24T07:31:52.853Z,8.83
2018-07-24T07:34:21.127Z,8.90
2018-07-24T07:36:49.384Z,8.67
2018-07-24T07:39:17.652Z,5.90
2018-07-24T07:41:45.803Z,11.83
2018-07-24T07:44:14.014Z,11.27
2018-07-24T07:46:42.214Z,7.60
2018-07-24T07:49:10.420Z,5.20
2018-07-24T07:51:38.696Z,5.93
2018-07-24T07:57:06.896Z,5.97
2018-07-24T07:59:35.123Z,6.93
2018-07-24T08:02:03.431Z,5.13
2018-07-24T08:04:31.764Z,5.97
2018-07-24T08:06:59.969Z,7.40
2018-07-24T08:09:29.144Z,5.40
2018-07-24T08:11:57.357Z,7.83
2018-07-24T08:14:25.710Z,6.23
2018-07-24T08:16:53.980Z,5.13
2018-07-24T08:19:22.176Z,4.63
2018-07-24T08:21:50.500Z,3.77
2018-07-24T08:24:18.808Z,4.20
2018-07-24T08:26:47.039Z,5.27
2018-07-24T08:29:15.301Z,4.00
2018-07-24T08:31:43.541Z,4.37
2018-07-24T08:34:11.531Z,3.63
2018-07-24T08:36:39.784Z,6.50
2018-07-24T08:39:09.741Z,5.63
2018-07-24T08:41:37.979Z,9.07
2018-07-24T08:44:06.196Z,5.83
2018-07-24T08:46:34.419Z,9.37
2018-07-24T08:49:02.733Z,7.67
2018-07-24T08:51:30.943Z,9.17
2018-07-24T08:53:59.679Z,7.03
2018-07-24T08:56:27.593Z,7.13
2018-07-24T08:58:55.786Z,6.90
2018-07-24T09:01:24.030Z,5.30
2018-07-24T09:03:52.486Z,5.57
2018-07-24T09:06:20.638Z,6.17
2018-07-24T09:08:48.579Z,7.63
2018-07-24T09:11:16.852Z,5.57
2018-07-24T09:13:45.156Z,5.23
2018-07-24T09:16:13.442Z,5.33
2018-07-24T09:18:41.656Z,3.80
2018-07-24T09:21:09.989Z,4.43
2018-07-24T09:23:38.359Z,4.70
2018-07-24T09:26:07.246Z,5.53
2018-07-24T09:28:35.817Z,4.93
2018-07-24T09:31:04.206Z,5.47
2018-07-24T09:33:32.407Z,4.00
2018-07-24T09:36:00.849Z,5.47
2018-07-24T09:38:29.069Z,4.47
2018-07-24T09:40:57.304Z,4.57
2018-07-24T09:43:28.551Z,3.93
2018-07-24T09:45:56.933Z,4.67
2018-07-24T09:48:25.148Z,6.30
2018-07-24T09:50:53.401Z,6.40
2018-07-24T09:53:21.600Z,8.00
2018-07-24T09:55:49.927Z,5.37
2018-07-24T09:58:18.106Z,3.07
2018-07-24T10:00:51.701Z,4.23
2018-07-24T10:03:19.903Z,4.67
2018-07-24T10:05:48.288Z,4.60
2018-07-24T10:08:16.645Z,4.07
2018-07-24T10:10:44.844Z,4.70
2018-07-24T10:13:13.206Z,4.17
2018-07-24T10:15:41.614Z,4.97
2018-07-24T10:18:09.885Z,4.57
2018-07-24T10:20:38.119Z,4.67
2018-07-24T10:23:06.331Z,4.30
2018-07-24T10:25:34.714Z,4.80
2018-07-24T10:28:02.926Z,5.77
2018-07-24T10:30:31.242Z,5.37
2018-07-24T10:33:00.097Z,4.03
2018-07-24T10:35:28.837Z,5.70
2018-07-24T10:37:57.069Z,4.80
2018-07-24T10:40:25.333Z,6.73
2018-07-24T10:42:53.628Z,6.10
2018-07-24T10:45:21.892Z,5.73
2018-07-24T10:47:50.120Z,6.03
2018-07-24T10:50:18.397Z,5.80
2018-07-24T10:52:46.615Z,4.93
2018-07-24T10:55:15.147Z,5.40
2018-07-24T10:57:43.432Z,5.37
2018-07-24T11:00:11.717Z,6.03
2018-07-24T11:02:39.952Z,6.00
2018-07-24T11:05:08.587Z,5.33
2018-07-24T11:07:36.889Z,7.80
2018-07-24T11:10:05.275Z,7.30
2018-07-24T11:12:33.574Z,5.80
2018-07-24T11:15:02.126Z,7.70
2018-07-24T11:17:30.305Z,7.07
2018-07-24T11:19:58.532Z,7.23
2018-07-24T11:22:26.863Z,4.80
2018-07-24T11:24:55.138Z,6.47
2018-07-24T11:30:15.944Z,5.10
2018-07-24T11:32:45.475Z,5.50
2018-07-24T11:35:13.997Z,6.53
2018-07-24T11:37:42.009Z,6.67
2018-07-24T11:40:10.236Z,6.53
2018-07-24T11:42:39.222Z,5.33
2018-07-24T11:45:08.249Z,4.77
2018-07-24T11:47:36.467Z,5.10
2018-07-24T11:50:04.858Z,8.83
2018-07-24T11:52:33.074Z,4.70
2018-07-24T11:55:01.512Z,7.37
2018-07-24T11:57:29.773Z,5.13
2018-07-24T11:59:58.976Z,5.37
2018-07-24T12:02:27.191Z,6.73
2018-07-24T12:04:55.633Z,5.73
2018-07-24T12:07:23.868Z,7.00
2018-07-24T12:09:52.074Z,8.03
2018-07-24T12:12:20.373Z,5.77
2018-07-24T12:14:48.458Z,7.00
2018-07-24T12:17:16.646Z,4.90
2018-07-24T12:19:44.848Z,4.90
2018-07-24T12:22:19.709Z,4.93
2018-07-24T12:24:47.963Z,4.40
2018-07-24T12:27:16.269Z,5.33
2018-07-24T12:29:44.496Z,5.03
2018-07-24T12:32:12.698Z,4.30
2018-07-24T12:34:41.037Z,4.33
2018-07-24T12:37:09.294Z,5.10
2018-07-24T12:39:37.499Z,5.17
2018-07-24T12:42:05.894Z,3.80
2018-07-24T12:44:34.165Z,5.27
2018-07-24T12:47:02.423Z,4.20
2018-07-24T12:49:30.613Z,4.07
2018-07-24T12:51:58.817Z,4.43
2018-07-24T12:54:27.082Z,4.53
2018-07-24T12:56:55.272Z,6.75
2018-07-24T12:59:23.505Z,4.00
2018-07-24T13:01:51.838Z,5.87
2018-07-24T13:04:20.173Z,4.77
2018-07-24T13:06:48.419Z,4.50
2018-07-24T13:09:16.696Z,4.40
2018-07-24T13:11:44.866Z,4.30
2018-07-24T13:14:13.257Z,4.33
2018-07-24T13:16:41.551Z,4.23
2018-07-24T13:19:09.667Z,4.17
2018-07-24T13:21:37.915Z,4.10
2018-07-24T13:24:06.387Z,4.70
2018-07-24T13:26:34.627Z,5.80
2018-07-24T13:29:02.837Z,3.90
2018-07-24T13:31:31.074Z,4.57
2018-07-24T13:33:59.485Z,4.73
2018-07-24T13:36:27.711Z,5.00
2018-07-24T13:38:55.974Z,6.67
2018-07-24T13:41:24.201Z,6.37
2018-07-24T13:43:52.555Z,6.93
2018-07-24T13:46:20.775Z,4.73
2018-07-24T13:48:49.002Z,6.73
2018-07-24T13:51:17.242Z,5.33
2018-07-24T13:53:45.462Z,6.00
2018-07-24T13:56:13.653Z,4.93
2018-07-24T13:58:41.936Z,4.87
2018-07-24T14:01:10.176Z,6.93
2018-07-24T14:03:38.402Z,5.80
2018-07-24T14:06:06.606Z,5.57
2018-07-24T14:08:34.952Z,5.97
2018-07-24T14:11:03.199Z,5.00
2018-07-24T14:13:31.365Z,5.47
2018-07-24T14:15:59.357Z,6.73
2018-07-24T14:18:27.545Z,6.17
2018-07-24T14:20:55.790Z,5.33
2018-07-24T14:23:24.000Z,8.83
2018-07-24T14:25:52.437Z,6.57
2018-07-24T14:28:20.661Z,5.23
2018-07-24T14:30:48.897Z,6.07
2018-07-24T14:33:17.104Z,6.83
2018-07-24T14:35:45.485Z,7.77
2018-07-24T14:38:13.944Z,5.10
2018-07-24T14:40:42.214Z,5.40
2018-07-24T15:00:28.539Z,8.70
2018-07-24T15:20:14.382Z,5.27
2018-07-24T16:01:07.628Z,5.63
2018-07-24T16:20:54.148Z,8.03
2018-07-24T16:40:40.589Z,2.47
2018-07-24T16:43:08.895Z,2.63
2018-07-24T16:45:37.504Z,2.77
2018-07-24T16:48:05.963Z,3.33
2018-07-24T16:50:34.501Z,3.57
2018-07-24T16:53:02.874Z,3.00
2018-07-24T16:55:31.301Z,4.13
2018-07-24T16:57:59.697Z,7.13
2018-07-24T17:00:28.088Z,4.17
2018-07-24T17:02:56.429Z,2.97
2018-07-24T17:05:28.190Z,3.47
2018-07-24T17:07:56.390Z,6.93
2018-07-24T17:10:24.663Z,3.07
2018-07-24T17:12:52.882Z,4.93
2018-07-24T17:15:21.348Z,3.77
2018-07-24T17:17:49.627Z,2.73
2018-07-24T17:20:17.856Z,2.93
2018-07-24T17:22:46.095Z,2.27
2018-07-24T17:25:14.453Z,2.47
2018-07-24T17:27:42.728Z,2.50
2018-07-24T17:30:10.938Z,3.63
2018-07-24T17:32:39.151Z,3.50
2018-07-24T17:35:07.937Z,2.33
2018-07-24T17:37:36.171Z,3.50
2018-07-24T17:40:04.431Z,5.27
2018-07-24T17:42:32.663Z,4.17
2018-07-24T17:45:00.990Z,2.40
2018-07-24T17:47:29.195Z,2.20
2018-07-24T17:49:57.395Z,2.57
2018-07-24T17:52:25.617Z,2.20
2018-07-24T17:54:53.907Z,2.43
2018-07-24T17:57:22.165Z,2.50
2018-07-24T17:59:50.383Z,3.50
2018-07-24T18:02:18.568Z,2.40
2018-07-24T18:04:46.852Z,2.30
2018-07-24T18:07:15.071Z,3.00
2018-07-24T18:09:43.474Z,3.87
2018-07-24T18:14:46.371Z,2.20
2018-07-24T18:17:14.578Z,3.03
2018-07-24T18:19:42.805Z,2.20
2018-07-24T18:22:11.112Z,3.17
2018-07-24T18:24:39.304Z,2.30
2018-07-24T18:27:07.577Z,2.80
2018-07-24T18:29:35.545Z,1.93
2018-07-24T18:32:03.897Z,3.47
2018-07-24T18:34:32.196Z,3.20
2018-07-24T18:37:00.155Z,2.63
2018-07-24T18:39:28.422Z,2.83
2018-07-24T18:41:56.691Z,2.00
2018-07-24T18:44:24.962Z,3.33
2018-07-24T18:46:53.860Z,2.10
2018-07-24T18:49:22.025Z,2.33
2018-07-24T18:51:50.017Z,3.30
2018-07-24T18:54:18.684Z,2.33
2018-07-24T18:56:46.861Z,4.57
2018-07-24T18:59:14.870Z,3.43
2018-07-24T19:01:43.137Z,2.50
2018-07-24T19:04:12.580Z,3.90
2018-07-24T19:06:40.907Z,2.60
2018-07-24T19:09:10.398Z,2.87
2018-07-24T19:11:38.692Z,4.13
2018-07-24T19:14:07.307Z,3.07
2018-07-24T19:16:35.532Z,4.37
2018-07-24T19:19:03.845Z,4.53
2018-07-24T19:21:31.992Z,6.23
2018-07-24T19:24:00.379Z,5.23
2018-07-24T19:26:28.553Z,3.03
2018-07-24T19:28:56.774Z,5.23
2018-07-24T19:31:24.972Z,6.67
2018-07-24T19:33:53.115Z,5.23
2018-07-24T19:36:21.296Z,3.10
2018-07-24T19:38:49.490Z,4.27
2018-07-24T19:41:17.704Z,5.90
2018-07-24T19:43:46.039Z,2.67
2018-07-24T19:46:14.326Z,2.20
2018-07-24T19:48:42.672Z,2.07
2018-07-24T19:51:10.848Z,2.43
2018-07-24T19:53:39.082Z,3.37
2018-07-24T19:56:07.404Z,1.77
2018-07-24T19:58:35.565Z,1.67
2018-07-24T20:01:03.819Z,2.30
2018-07-24T20:03:32.033Z,1.90
2018-07-24T20:06:00.216Z,2.67
2018-07-24T20:08:28.448Z,2.50
2018-07-24T20:10:56.667Z,2.17
2018-07-24T20:13:24.968Z,2.40
2018-07-24T20:15:53.355Z,3.67
2018-07-24T20:18:21.581Z,4.03
2018-07-24T20:20:49.869Z,1.90
2018-07-24T20:23:18.133Z,2.00
2018-07-24T20:25:46.504Z,2.90
2018-07-24T20:28:14.745Z,2.90
2018-07-24T20:30:42.927Z,2.50
2018-07-24T20:33:11.140Z,3.20
2018-07-24T20:35:39.428Z,2.80
2018-07-24T20:38:07.597Z,5.30
2018-07-24T20:40:35.790Z,3.90
2018-07-24T20:43:04.045Z,3.23
2018-07-24T20:45:32.467Z,3.63
2018-07-24T20:48:00.676Z,3.83
2018-07-24T20:50:28.605Z,3.07
2018-07-24T20:52:56.796Z,9.17
2018-07-24T20:55:25.160Z,4.27
2018-07-24T20:57:53.634Z,7.20
2018-07-24T21:00:21.972Z,3.93
2018-07-24T21:02:50.107Z,5.50
2018-07-24T21:05:18.531Z,5.10
2018-07-24T21:07:46.764Z,4.90
2018-07-24T21:10:17.427Z,2.90
2018-07-24T21:12:46.881Z,4.03
2018-07-24T21:15:15.607Z,5.43
2018-07-24T21:17:43.910Z,4.27
2018-07-24T21:20:12.368Z,3.90
2018-07-24T21:22:40.541Z,3.47
2018-07-24T21:25:08.906Z,5.40
2018-07-24T21:27:37.129Z,3.03
2018-07-24T21:30:06.046Z,4.10
2018-07-24T21:32:34.266Z,3.87
2018-07-24T21:35:02.757Z,4.80
2018-07-24T21:37:30.941Z,2.80
2018-07-24T21:39:59.130Z,5.80
2018-07-24T21:42:27.312Z,4.87
2018-07-24T21:44:55.535Z,5.83
2018-07-24T21:47:23.703Z,3.13
2018-07-24T21:49:51.889Z,3.57
2018-07-24T21:52:20.095Z,4.47
2018-07-24T21:54:48.460Z,4.03
2018-07-24T21:57:16.713Z,3.80
2018-07-24T21:59:44.902Z,5.53
2018-07-24T22:02:13.082Z,2.73
2018-07-24T22:04:41.290Z,3.47
2018-07-24T22:07:09.488Z,5.83
2018-07-24T22:09:37.763Z,4.57
2018-07-24T22:12:06.151Z,4.10
2018-07-24T22:14:34.347Z,2.77
2018-07-24T22:17:02.568Z,3.30
2018-07-24T22:19:30.798Z,3.47
2018-07-24T22:21:59.239Z,5.10
2018-07-24T22:24:27.541Z,3.27
2018-07-24T22:26:55.822Z,3.47
2018-07-24T22:29:24.197Z,3.50
2018-07-24T22:31:52.568Z,5.60
2018-07-24T22:34:20.886Z,5.93
2018-07-24T22:36:49.116Z,4.10
2018-07-24T22:39:17.289Z,4.60
2018-07-24T22:41:45.454Z,4.80
2018-07-24T22:44:13.773Z,4.23
2018-07-24T22:46:41.953Z,3.83
2018-07-24T22:49:10.140Z,3.37
2018-07-24T22:51:38.356Z,3.50
2018-07-24T22:54:06.639Z,4.43
2018-07-24T22:56:34.844Z,4.43
2018-07-24T22:59:03.008Z,3.93
2018-07-24T23:01:31.215Z,5.17
2018-07-24T23:03:59.535Z,4.27
2018-07-24T23:06:27.717Z,3.47
2018-07-24T23:08:55.919Z,3.70
2018-07-24T23:11:24.107Z,3.27
2018-07-24T23:13:52.446Z,3.80
2018-07-24T23:16:20.661Z,4.33
2018-07-24T23:18:48.866Z,3.27
2018-07-24T23:21:17.048Z,3.43
2018-07-24T23:23:45.301Z,4.10
2018-07-24T23:26:13.537Z,4.17
2018-07-24T23:28:41.724Z,4.50
2018-07-24T23:31:09.929Z,3.67
2018-07-24T23:33:38.116Z,4.07
2018-07-24T23:36:07.178Z,3.87
2018-07-24T23:38:35.367Z,7.27
2018-07-24T23:41:03.555Z,3.50
2018-07-24T23:43:32.027Z,4.87
2018-07-24T23:46:00.396Z,3.97
2018-07-24T23:48:28.549Z,3.33
2018-07-24T23:50:56.724Z,3.50
2018-07-24T23:53:24.875Z,3.90
2018-07-24T23:55:53.082Z,3.30
2018-07-24T23:58:21.294Z,3.87
